createdAt,value
2019-01-04T00:05:03.336Z,-3.92
2019-01-04T00:10:23.092Z,-3.97
2019-01-04T00:15:43.228Z,-4.13
2019-01-04T00:21:02.459Z,-4.33
2019-01-04T00:26:22.418Z,-4.62
2019-01-04T00:31:41.989Z,-4.86
2019-01-04T00:37:01.165Z,-5.13
2019-01-04T00:42:20.896Z,-5.38
2019-01-04T00:47:40.985Z,-5.69
2019-01-04T00:53:00.765Z,-5.86
2019-01-04T00:59:14.698Z,-5.99
2019-01-04T01:05:31.296Z,-6.21
2019-01-04T01:11:36.333Z,-6.22
2019-01-04T01:17:38.265Z,-6.01
2019-01-04T01:23:34.371Z,-6.12
2019-01-04T01:29:31.877Z,-6.28
2019-01-04T01:35:35.303Z,-6.11
2019-01-04T01:41:55.537Z,-6.05
2019-01-04T01:47:31.063Z,-5.76
2019-01-04T01:52:50.857Z,-5.59
2019-01-04T01:58:10.694Z,-5.22
2019-01-04T02:03:32.626Z,-4.77
2019-01-04T02:08:52.198Z,-4.49
2019-01-04T02:14:12.278Z,-4.25
2019-01-04T02:19:33.474Z,-4.07
2019-01-04T02:24:53.597Z,-3.95
2019-01-04T02:30:13.157Z,-3.88
2019-01-04T02:35:33.151Z,-3.85
2019-01-04T02:40:52.739Z,-3.90
2019-01-04T02:46:14.143Z,-3.91
2019-01-04T02:51:33.952Z,-3.89
2019-01-04T02:56:53.596Z,-3.90
2019-01-04T03:02:14.682Z,-3.88
2019-01-04T03:07:34.684Z,-3.89
2019-01-04T03:12:54.432Z,-3.91
2019-01-04T03:18:14.424Z,-3.91
2019-01-04T03:23:33.511Z,-3.90
2019-01-04T03:28:52.731Z,-3.89
2019-01-04T03:34:12.635Z,-3.93
2019-01-04T03:39:31.974Z,-3.93
2019-01-04T03:44:52.220Z,-3.91
2019-01-04T03:50:12.685Z,-3.80
2019-01-04T03:55:31.989Z,-3.82
2019-01-04T04:00:51.075Z,-3.79
2019-01-04T04:06:10.404Z,-3.80
2019-01-04T04:11:29.639Z,-3.79
2019-01-04T04:16:49.087Z,-3.76
2019-01-04T04:22:08.870Z,-3.81
2019-01-04T04:27:28.640Z,-3.81
2019-01-04T04:32:48.877Z,-3.83
2019-01-04T04:38:09.010Z,-3.79
2019-01-04T04:43:28.921Z,-3.74
2019-01-04T04:48:48.442Z,-3.77
2019-01-04T04:54:08.128Z,-3.76
2019-01-04T04:59:27.591Z,-3.71
2019-01-04T05:04:47.459Z,-3.70
2019-01-04T05:10:07.832Z,-3.66
2019-01-04T05:15:27.330Z,-3.71
2019-01-04T05:20:46.695Z,-3.69
2019-01-04T05:26:09.091Z,-3.72
2019-01-04T05:31:30.602Z,-3.86
2019-01-04T05:36:50.435Z,-3.96
2019-01-04T05:42:09.609Z,-3.93
2019-01-04T05:47:30.461Z,-3.93
2019-01-04T05:52:49.988Z,-3.94
2019-01-04T05:58:11.069Z,-3.93
2019-01-04T06:03:30.423Z,-3.90
2019-01-04T06:08:51.358Z,-3.93
2019-01-04T06:14:10.849Z,-3.95
2019-01-04T06:19:31.043Z,-4.04
2019-01-04T06:24:51.824Z,-4.07
2019-01-04T06:30:11.388Z,-4.13
2019-01-04T06:35:30.918Z,-4.15
2019-01-04T06:40:50.364Z,-4.15
2019-01-04T06:46:10.278Z,-4.15
2019-01-04T06:51:29.739Z,-4.18
2019-01-04T06:56:48.899Z,-4.18
2019-01-04T07:02:08.068Z,-4.17
2019-01-04T07:07:28.232Z,-4.20
2019-01-04T07:12:47.559Z,-4.13
2019-01-04T07:18:07.231Z,-4.14
2019-01-04T07:23:27.174Z,-4.10
2019-01-04T07:28:48.130Z,-4.08
2019-01-04T07:34:08.818Z,-4.03
2019-01-04T07:39:28.927Z,-3.92
2019-01-04T07:44:48.605Z,-3.83
2019-01-04T07:50:09.839Z,-3.82
2019-01-04T07:55:29.984Z,-3.68
2019-01-04T08:00:49.926Z,-3.60
2019-01-04T08:06:09.944Z,-3.49
2019-01-04T08:11:29.699Z,-3.41
2019-01-04T08:16:49.460Z,-3.27
2019-01-04T08:22:08.838Z,-3.15
2019-01-04T08:27:28.673Z,-3.04
2019-01-04T08:32:48.627Z,-2.90
2019-01-04T08:38:08.671Z,-2.81
2019-01-04T08:43:28.593Z,-2.94
2019-01-04T08:48:49.322Z,-2.89
2019-01-04T08:54:09.737Z,-2.81
2019-01-04T08:59:29.454Z,-2.80
2019-01-04T09:04:50.145Z,-2.75
2019-01-04T09:10:10.385Z,-2.59
2019-01-04T09:15:31.147Z,-2.58
2019-01-04T09:20:50.631Z,-2.60
2019-01-04T09:26:10.546Z,-2.16
2019-01-04T09:31:30.735Z,-1.77
2019-01-04T09:36:50.644Z,-1.45
2019-01-04T09:42:16.003Z,-1.45
2019-01-04T09:47:35.624Z,-1.34
2019-01-04T09:52:56.641Z,-1.32
2019-01-04T09:58:16.532Z,-1.23
2019-01-04T10:03:37.235Z,-1.01
2019-01-04T10:08:56.824Z,-0.93
2019-01-04T10:14:16.216Z,-1.15
2019-01-04T10:19:36.288Z,-1.15
2019-01-04T10:24:56.777Z,-1.23
2019-01-04T10:30:35.923Z,-1.22
2019-01-04T10:35:55.651Z,-0.98
2019-01-04T10:41:15.333Z,-0.65
2019-01-04T10:46:35.684Z,-0.84
2019-01-04T10:51:55.527Z,-0.90
2019-01-04T10:57:15.434Z,-0.72
2019-01-04T11:02:35.117Z,-0.72
2019-01-04T11:07:54.442Z,-0.64
2019-01-04T11:13:13.881Z,-0.77
2019-01-04T11:18:33.718Z,-0.95
2019-01-04T11:24:23.499Z,-1.13
2019-01-04T11:30:18.810Z,-1.25
2019-01-04T11:36:20.583Z,-1.16
2019-01-04T11:42:11.178Z,-1.15
2019-01-04T11:47:47.457Z,-1.10
2019-01-04T11:53:15.391Z,-1.09
2019-01-04T11:58:34.716Z,-1.21
2019-01-04T12:03:56.938Z,-1.14
2019-01-04T12:09:16.910Z,-1.18
2019-01-04T12:14:41.420Z,-0.97
2019-01-04T12:19:56.480Z,-0.84
2019-01-04T12:25:16.827Z,-0.82
2019-01-04T12:30:37.199Z,-0.92
2019-01-04T12:35:57.086Z,-0.92
2019-01-04T12:41:18.338Z,-1.21
2019-01-04T12:46:38.307Z,-1.25
2019-01-04T12:51:58.281Z,-1.27
2019-01-04T12:57:17.590Z,-1.32
2019-01-04T13:02:37.379Z,-1.34
2019-01-04T13:07:57.823Z,-1.46
2019-01-04T13:13:17.035Z,-1.47
2019-01-04T13:18:35.982Z,-1.36
2019-01-04T13:23:55.128Z,-1.37
2019-01-04T13:29:15.839Z,-1.27
2019-01-04T13:34:35.580Z,-1.37
2019-01-04T13:39:55.713Z,-1.35
2019-01-04T13:45:15.466Z,-1.30
2019-01-04T13:50:35.068Z,-1.47
2019-01-04T13:55:54.719Z,-1.52
2019-01-04T14:01:14.514Z,-1.52
2019-01-04T14:06:34.492Z,-1.53
2019-01-04T14:11:53.484Z,-1.50
2019-01-04T14:17:13.798Z,-1.59
2019-01-04T14:22:33.638Z,-1.60
2019-01-04T14:27:54.122Z,-1.61
2019-01-04T14:33:15.324Z,-1.56
2019-01-04T14:38:35.240Z,-1.58
2019-01-04T14:43:55.872Z,-1.60
2019-01-04T14:49:15.906Z,-1.55
2019-01-04T14:54:36.534Z,-1.47
2019-01-04T14:59:56.118Z,-1.37
2019-01-04T15:05:16.338Z,-1.45
2019-01-04T15:10:36.270Z,-1.44
2019-01-04T15:15:56.555Z,-1.37
2019-01-04T15:21:15.657Z,-1.38
2019-01-04T15:26:36.135Z,-1.39
2019-01-04T15:31:55.363Z,-1.36
2019-01-04T15:37:14.575Z,-1.26
2019-01-04T15:42:33.963Z,-1.23
2019-01-04T15:47:53.225Z,-1.27
2019-01-04T15:53:13.480Z,-1.29
2019-01-04T15:58:32.826Z,-1.23
2019-01-04T16:03:53.074Z,-1.15
2019-01-04T16:09:13.130Z,-1.20
2019-01-04T16:14:34.398Z,-1.15
2019-01-04T16:19:54.647Z,-1.10
2019-01-04T16:25:15.369Z,-1.12
2019-01-04T16:30:35.280Z,-1.06
2019-01-04T16:35:55.088Z,-1.04
2019-01-04T16:41:14.836Z,-1.08
2019-01-04T16:46:35.491Z,-1.01
2019-01-04T16:51:55.232Z,-1.01
2019-01-04T16:57:16.070Z,-1.05
2019-01-04T17:02:37.897Z,-0.99
2019-01-04T17:07:57.898Z,-0.95
2019-01-04T17:13:18.054Z,-1.04
2019-01-04T17:18:38.265Z,-1.06
2019-01-04T17:23:58.406Z,-1.09
2019-01-04T17:29:19.508Z,-1.05
2019-01-04T17:34:39.354Z,-1.10
2019-01-04T17:39:59.107Z,-1.23
2019-01-04T17:45:18.932Z,-1.22
2019-01-04T17:50:39.207Z,-1.19
2019-01-04T17:55:58.929Z,-1.21
2019-01-04T18:01:19.139Z,-1.21
2019-01-04T18:06:39.378Z,-1.23
2019-01-04T18:11:59.835Z,-1.19
2019-01-04T18:17:19.550Z,-1.20
2019-01-04T18:22:40.510Z,-1.20
2019-01-04T18:28:00.333Z,-1.20
2019-01-04T18:33:19.925Z,-1.18
2019-01-04T18:38:40.683Z,-1.18
2019-01-04T18:44:00.830Z,-1.17
2019-01-04T18:49:20.992Z,-1.18
2019-01-04T18:54:41.295Z,-1.14
2019-01-04T19:00:01.104Z,-1.16
2019-01-04T19:05:20.729Z,-1.15
2019-01-04T19:10:41.017Z,-1.08
2019-01-04T19:16:01.188Z,-1.08
2019-01-04T19:21:22.506Z,-1.07
2019-01-04T19:26:42.113Z,-1.04
2019-01-04T19:32:02.161Z,-1.04
2019-01-04T19:37:22.367Z,-1.02
2019-01-04T19:42:41.867Z,-0.99
2019-01-04T19:48:01.765Z,-0.94
2019-01-04T19:53:21.770Z,-0.92
2019-01-04T19:58:43.047Z,-0.91
2019-01-04T20:04:03.334Z,-0.88
2019-01-04T20:10:21.430Z,-0.87
2019-01-04T20:16:17.618Z,-0.89
2019-01-04T20:22:03.504Z,-0.89
2019-01-04T20:27:40.808Z,-0.85
2019-01-04T20:33:35.727Z,-0.86
2019-01-04T20:39:13.700Z,-0.85
